AirNav   Air Wisconsin Up To $57,000 Bonus
 
 936 users online  

IS26 Niklaus Airport
Farmer City, Illinois, USA

GOING TO FARMER CITY?


FAA INFORMATION EFFECTIVE 01 DECEMBER 2022

Location

FAA Identifier: IS26
Lat/Long: 40-11-00.1220N 088-36-55.2370W
40-11.002033N 088-36.920617W
40.1833672,-88.6153436
(estimated)
Elevation: 725 ft. / 221 m (estimated)
Variation: 00E (1985)
From city: 4 miles SE of FARMER CITY, IL
Time zone: UTC -6 (UTC -5 during Daylight Saving Time)
Zip code: 61839

Airport Operations

Airport use: Private use. Permission required prior to landing
Activation date: 05/1989
Control tower: no
ARTCC: CHICAGO CENTER
FSS: KANKAKEE FLIGHT SERVICE STATION
Attendance: UNATNDD
Wind indicator: yes
Segmented circle: no

Airport Communications

WX ASOS at CMI (18 nm SE): PHONE 217-355-4072

Nearby radio navigation aids

VOR radial/distance  VOR name  Freq  Var
CMIr297/17.9CHAMPAIGN VORTAC110.0003E
BMIr138/23.0BLOOMINGTON VOR/DME108.2003E
AXCr020/29.0ADDERS VORTAC117.2003E
RBSr219/31.6ROBERTS VOR/DME116.8002E
PNTr169/38.6PONTIAC VOR/DME109.6003E

 
NDB name  Hdg/Dist  Freq  Var  ID
ABRAHAM088/33.232900EAAA .- .- .-

Airport Services

Runway Information

Runway 9/27

Dimensions: 2620 x 100 ft. / 799 x 30 m
Surface: turf
RUNWAY 9  RUNWAY 27
Traffic pattern: leftleft
Displaced threshold: no700 ft.
Obstructions: none35 ft. pline

Airport Ownership and Management from official FAA records

Ownership: Privately-owned
Owner: EDWIN S. NIKLAUS
2680 N 700 E ROAD
FARMER CITY, IL 61842
Phone 309-928-3304
Manager: EDWIN S. NIKLAUS
RT 1 BOX 117
FARMER CITY, IL 61842
Phone 309-928-3304

Airport Operational Statistics

Aircraft based on the field: 2
Single engine airplanes: 2
    

Additional Remarks

FOR CD CTC CHAMPAIGN APCH AT 217-355-4069, WHEN APCH CLSD CTC CHICAGO ARTCC AT 630-906-8921

Instrument Procedures

There are no published instrument procedures at IS26.

Some nearby airports with instrument procedures:

KCMI - University of Illinois/Willard Airport (18 nm SE)
C16 - Frasca Field Airport (19 nm E)
KBMI - Central Illinois Regional Airport/Bloomington-Normal (22 nm NW)
KTIP - Rantoul National Aviation Center Airport-Frank Elliott Field (23 nm E)
KDEC - Decatur Airport (24 nm SW)
 
Loc | Ops | Rwys | IFR | FBO | Links
Com | Nav | Svcs | Stats | Notes
Area around IS26 (Niklaus Airport)
 
Road maps at: MapQuest Bing Google
 
Aerial photo
No photo
 
Sectional chart

 
Airport distance calculator
Flying to Niklaus Airport? Find the distance to fly.

From to IS26

Sunrise and sunset
Times for 07-Dec-2022
 Local
(UTC-6)
 Zulu
(UTC)
Morning civil twilight06:3412:34
Sunrise07:0413:04
Sunset16:2822:28
Evening civil twilight16:5822:58

Current date and time
Zulu (UTC)  07-Dec-2022 12:49:43
Local (UTC-6)  07-Dec-2022 06:49:43
 
METAR
KCMI 
18nm SE 
071153Z AUTO 01005KT 5SM BR OVC012 06/04 A3016 RMK AO2 SLP219 70001 T00560039 10061 20028 53011
KBMI 
22nm NW 
071156Z 35005KT 5SM BR OVC005 04/04 A3019 RMK AO2 SLP228 60000 T00390039 10044 20039 53020
KTIP 
22nm E 
071235Z AUTO 34004KT 1 3/4SM BR OVC004 04/04 A3019 RMK AO2 T00420040
KDEC 
24nm SW 
071154Z 03004KT 1/4SM FG VV002 04/04 A3018 RMK AO2 SLP223 T00390039 10061 20039 53012
KAAA 
33nm W 
071235Z AUTO 00000KT 1/4SM FG OVC002 02/02 A3021 RMK AO2 T00200020
TAF
KCMI 
18nm SE 
071121Z 0712/0812 36004KT 4SM BR OVC008 TEMPO 0712/0714 1/2SM FG VV002 FM071500 VRB03KT 6SM BR BKN007 FM071800 33005KT P6SM BKN018 FM080000 04003KT P6SM OVC012 FM080800 06008KT P6SM OVC007
KBMI 
22nm NW 
071121Z 0712/0812 36004KT 3SM BR OVC003 TEMPO 0712/0714 1/2SM FG VV002 FM071600 VRB03KT P6SM BKN006 FM080100 05006KT P6SM BKN012
NOTAMs
Click for the latest NOTAMs
NOTAMs are issued by the DoD/FAA and will open in a separate window not controlled by AirNav.

 

 
 

Would you like to see your business listed on this page?

 If your business provides an interesting product or service to pilots, flight crews, aircraft, or users of the Niklaus Airport, you should consider listing it here.  To start the listing process, click on the button below
 
Add a business
 

Other Pages about Niklaus Airport

Update a link
 
Copyright © AirNav, LLC. All rights reserved. Privacy Policy  Contact